Time;durP1;ratioP1;P1;durP2;ratioP2;P2;SDS_P1;SDS_P2;PMS_P1;PMS_P2;Temp;Humidity;BMP_temperature;BMP_pressure;BME280_temperature;BME280_humidity;BME280_pressure;Samples;Min_cycle;Max_cycle;Signal;HPM_P1;HPM_P2
2023/11/03 00:01:09;;;;;;;5.75;2.38;;;15.70;99.90;;;;;;4977167;28;20121;-54
2023/11/03 00:03:36;;;;;;;2.95;1.50;;;15.80;99.90;;;;;;4996106;28;20120;-55
2023/11/03 00:06:03;;;;;;;4.07;2.47;;;15.80;99.90;;;;;;4996186;28;20034;-54
2023/11/03 00:08:30;;;;;;;4.32;1.90;;;15.80;99.90;;;;;;4993555;28;20050;-53
2023/11/03 00:11:00;;;;;;;7.60;2.28;;;15.90;99.90;;;;;;4995644;28;20527;-53
2023/11/03 00:13:25;;;;;;;3.22;2.65;;;15.90;99.90;;;;;;4996202;28;20477;-53
2023/11/03 00:15:51;;;;;;;3.35;1.40;;;15.90;99.90;;;;;;4995800;28;20033;-55
2023/11/03 00:18:17;;;;;;;3.90;1.75;;;15.90;99.90;;;;;;4993451;28;20065;-54
2023/11/03 00:20:43;;;;;;;4.63;1.88;;;15.90;99.90;;;;;;4993470;28;20046;-54
2023/11/03 00:23:08;;;;;;;5.60;2.50;;;15.90;99.90;;;;;;4995750;28;20089;-54
2023/11/03 00:25:34;;;;;;;6.85;2.33;;;15.90;99.90;;;;;;4995372;28;20436;-55
2023/11/03 00:28:00;;;;;;;4.13;1.83;;;15.90;99.90;;;;;;4977008;28;20042;-55
2023/11/03 00:30:26;;;;;;;4.65;2.20;;;15.80;99.90;;;;;;4995880;28;20053;-54
2023/11/03 00:32:52;;;;;;;5.80;2.30;;;15.90;99.90;;;;;;4995350;28;20030;-55
2023/11/03 00:35:18;;;;;;;4.60;1.98;;;15.90;99.90;;;;;;4995588;28;20038;-55
2023/11/03 00:37:44;;;;;;;5.70;1.90;;;15.90;99.90;;;;;;4993187;28;20441;-54
2023/11/03 00:40:13;;;;;;;3.55;1.70;;;15.90;99.90;;;;;;4995356;28;20060;-54
2023/11/03 00:42:39;;;;;;;4.03;1.88;;;15.90;99.90;;;;;;4995251;28;20065;-55
2023/11/03 00:45:06;;;;;;;3.83;1.88;;;15.90;99.90;;;;;;4994683;28;20077;-55
2023/11/03 00:47:31;;;;;;;2.63;1.65;;;16.00;99.90;;;;;;5000082;28;20041;-55
2023/11/03 00:49:57;;;;;;;3.35;2.25;;;15.90;99.90;;;;;;5034412;28;20029;-54
2023/11/03 00:52:25;;;;;;;2.50;1.77;;;15.90;99.90;;;;;;5034628;28;20060;-54
2023/11/03 00:54:52;;;;;;;4.50;2.00;;;16.00;99.90;;;;;;5034607;28;20392;-54
2023/11/03 00:57:17;;;;;;;2.30;1.35;;;15.90;99.90;;;;;;4999416;28;20038;-55
2023/11/03 00:59:44;;;;;;;1.73;1.23;;;15.90;99.90;;;;;;5034398;28;20075;-55
2023/11/03 01:02:14;;;;;;;2.60;1.50;;;16.00;99.90;;;;;;4983353;28;20046;-55
2023/11/03 01:04:40;;;;;;;5.10;1.38;;;16.10;99.90;;;;;;5034403;28;20095;-55
2023/11/03 01:07:06;;;;;;;3.67;1.70;;;16.10;99.90;;;;;;5033823;28;20048;-55
2023/11/03 01:09:32;;;;;;;3.35;1.50;;;16.10;99.90;;;;;;5033922;28;20025;-55
2023/11/03 01:11:58;;;;;;;5.68;1.20;;;16.10;99.90;;;;;;5032887;28;20021;-54
2023/11/03 01:14:23;;;;;;;3.20;1.40;;;16.20;99.90;;;;;;4950786;28;20037;-55
2023/11/03 01:16:49;;;;;;;2.40;1.20;;;16.20;99.90;;;;;;5034229;28;20476;-54
2023/11/03 01:19:18;;;;;;;1.70;1.27;;;16.30;99.90;;;;;;5033991;28;20022;-55
2023/11/03 01:21:45;;;;;;;2.45;1.17;;;16.30;99.90;;;;;;5032526;28;20393;-54
2023/11/03 01:24:11;;;;;;;2.15;1.20;;;16.30;99.90;;;;;;5033887;28;20049;-53
2023/11/03 01:26:40;;;;;;;2.72;1.48;;;16.30;99.90;;;;;;5033771;28;20080;-54
2023/11/03 01:29:06;;;;;;;2.97;1.42;;;16.30;99.90;;;;;;5033768;28;20112;-55
2023/11/03 01:31:32;;;;;;;4.57;1.50;;;16.20;99.90;;;;;;5033950;28;20205;-54
2023/11/03 01:33:59;;;;;;;2.08;1.17;;;16.30;99.90;;;;;;5033903;28;20033;-54
2023/11/03 01:36:24;;;;;;;4.28;1.30;;;16.20;99.90;;;;;;5033667;28;20120;-54
2023/11/03 01:38:51;;;;;;;3.65;1.80;;;16.20;99.90;;;;;;5033570;28;20109;-54
2023/11/03 01:41:17;;;;;;;3.55;1.63;;;16.20;99.90;;;;;;5033536;28;20029;-54
2023/11/03 01:44:01;;;;;;;4.30;1.75;;;;;;;;;;5033728;28;20096;-54
2023/11/03 01:46:28;;;;;;;3.85;1.50;;;;;;;;;;5033460;28;20115;-54
2023/11/03 01:48:55;;;;;;;3.03;1.73;;;;;;;;;;5033098;28;20177;-53
2023/11/03 01:51:21;;;;;;;2.70;1.40;;;;;;;;;;5033367;28;20043;-54
2023/11/03 01:53:47;;;;;;;3.30;1.67;;;;;;;;;;5033587;28;20025;-53
2023/11/03 01:56:13;;;;;;;3.58;1.50;;;;;;;;;;5033249;28;20037;-54
2023/11/03 01:58:40;;;;;;;3.08;1.38;;;;;;;;;;5033121;28;20112;-55
2023/11/03 02:01:06;;;;;;;2.38;1.10;;;;;;;;;;5033403;28;20044;-54
2023/11/03 02:03:33;;;;;;;2.05;1.10;;;;;;;;;;4998514;28;20045;-55
2023/11/03 02:05:59;;;;;;;2.58;0.93;;;;;;;;;;5033182;28;20029;-54
2023/11/03 02:08:25;;;;;;;1.48;0.90;;;;;;;;;;5033414;28;20069;-54
2023/11/03 02:10:51;;;;;;;1.92;1.13;;;;;;;;;;5014373;28;20033;-54
2023/11/03 02:13:17;;;;;;;2.25;0.70;;;;;;;;;;5033077;28;20083;-53
2023/11/03 02:15:43;;;;;;;2.20;0.95;;;;;;;;;;5014333;28;20061;-54
2023/11/03 02:18:10;;;;;;;2.30;0.98;;;;;;;;;;5014365;28;20057;-54
2023/11/03 02:20:36;;;;;;;1.75;0.55;;;;;;;;;;5032830;28;20112;-54
2023/11/03 02:23:03;;;;;;;1.67;0.80;;;;;;;;;;5014290;28;20021;-54
2023/11/03 02:25:30;;;;;;;3.03;0.90;;;;;;;;;;5032957;28;20456;-54
2023/11/03 02:27:56;;;;;;;2.88;1.00;;;;;;;;;;5032650;28;20166;-54
2023/11/03 02:30:22;;;;;;;2.38;1.13;;;;;;;;;;5032569;28;20064;-53
2023/11/03 02:32:48;;;;;;;3.88;0.90;;;;;;;;;;5032744;28;20021;-54
2023/11/03 02:35:15;;;;;;;1.95;0.93;;;;;;;;;;5032639;28;20026;-54
2023/11/03 02:37:41;;;;;;;1.20;0.73;;;;;;;;;;5032547;28;20025;-53
2023/11/03 02:40:07;;;;;;;2.22;1.17;;;;;;;;;;5032706;28;20052;-55
2023/11/03 02:42:34;;;;;;;2.33;1.33;;;;;;;;;;4997545;28;20045;-54
2023/11/03 02:45:00;;;;;;;3.05;1.30;;;;;;;;;;5032349;28;20472;-53
2023/11/03 02:47:26;;;;;;;0.80;0.68;;;;;;;;;;5031801;28;20425;-54
2023/11/03 02:49:52;;;;;;;1.63;1.00;;;;;;;;;;5032546;28;20030;-54
2023/11/03 02:52:18;;;;;;;1.73;1.17;;;;;;;;;;5032281;28;20025;-54
2023/11/03 02:54:44;;;;;;;2.03;1.10;;;;;;;;;;5013677;28;20113;-53
2023/11/03 02:57:10;;;;;;;2.53;1.13;;;;;;;;;;5032227;28;20076;-54
2023/11/03 02:59:36;;;;;;;2.47;1.33;;;;;;;;;;4997194;28;20041;-55
2023/11/03 03:02:04;;;;;;;1.63;1.27;;;;;;;;;;5032393;28;20021;-55
2023/11/03 03:04:31;;;;;;;3.63;1.40;;;;;;;;;;5032011;28;20530;-54
2023/11/03 03:06:58;;;;;;;2.53;1.60;;;;;;;;;;5031820;28;20037;-54
2023/11/03 03:09:24;;;;;;;3.38;1.38;;;;;;;;;;5032122;28;20043;-55
2023/11/03 03:11:50;;;;;;;2.53;1.10;;;;;;;;;;5013427;28;20125;-53
2023/11/03 03:14:16;;;;;;;2.50;1.30;;;17.00;99.90;;;;;;5013487;28;20041;-54
2023/11/03 03:16:41;;;;;;;4.90;1.52;;;16.90;99.90;;;;;;5031902;28;20026;-53
2023/11/03 03:19:07;;;;;;;5.35;1.23;;;16.90;99.90;;;;;;4997076;28;20172;-54
2023/11/03 03:21:33;;;;;;;6.90;1.50;;;16.80;99.90;;;;;;5031833;28;20119;-55
2023/11/03 03:23:59;;;;;;;2.05;1.23;;;16.80;99.90;;;;;;4996908;28;20029;-55
2023/11/03 03:26:26;;;;;;;2.33;0.93;;;16.80;99.90;;;;;;5032200;28;20583;-53
2023/11/03 03:28:51;;;;;;;4.78;2.10;;;16.80;99.90;;;;;;5031637;28;20029;-54
2023/11/03 03:31:18;;;;;;;10.65;1.30;;;16.70;99.90;;;;;;5032039;28;20487;-54
2023/11/03 03:33:43;;;;;;;2.92;0.90;;;16.70;99.90;;;;;;5031891;28;20025;-54
2023/11/03 03:36:09;;;;;;;3.38;1.10;;;16.80;99.90;;;;;;5035500;28;20029;-54
2023/11/03 03:38:36;;;;;;;1.95;0.90;;;16.80;99.90;;;;;;5035867;28;20057;-54
2023/11/03 03:41:02;;;;;;;4.50;1.30;;;16.80;99.90;;;;;;5035893;28;20041;-54
2023/11/03 03:43:28;;;;;;;0.75;0.45;;;16.90;99.90;;;;;;5000713;28;20034;-53
2023/11/03 03:45:54;;;;;;;4.15;0.93;;;16.80;99.90;;;;;;5035800;28;20079;-55
2023/11/03 03:48:19;;;;;;;2.10;0.85;;;16.80;99.90;;;;;;5035573;28;20064;-53
2023/11/03 03:50:45;;;;;;;3.70;1.15;;;16.80;99.90;;;;;;5036040;28;20108;-56
2023/11/03 03:53:11;;;;;;;5.75;1.13;;;16.80;99.90;;;;;;5000796;28;20041;-54
2023/11/03 03:55:36;;;;;;;4.40;1.38;;;16.80;99.90;;;;;;5035565;28;20029;-54
2023/11/03 03:58:02;;;;;;;4.28;1.25;;;16.90;99.90;;;;;;5035707;28;20035;-55
2023/11/03 04:00:28;;;;;;;2.10;1.00;;;16.90;99.90;;;;;;5016926;28;20045;-55
2023/11/03 04:02:53;;;;;;;4.32;1.35;;;16.90;99.90;;;;;;5035320;28;20033;-53
2023/11/03 04:05:19;;;;;;;2.92;0.93;;;16.90;99.90;;;;;;5035358;28;20028;-53
2023/11/03 04:07:45;;;;;;;2.25;1.00;;;17.00;99.90;;;;;;5035141;28;20038;-54
2023/11/03 04:10:11;;;;;;;1.73;0.90;;;17.00;99.90;;;;;;5035314;28;20036;-55
2023/11/03 04:12:36;;;;;;;2.38;1.00;;;16.90;99.90;;;;;;5035208;28;20033;-56
2023/11/03 04:15:02;;;;;;;2.28;1.08;;;16.80;99.90;;;;;;5035156;28;20036;-55
2023/11/03 04:17:28;;;;;;;3.42;0.88;;;16.90;99.90;;;;;;5035157;28;20033;-55
2023/11/03 04:19:54;;;;;;;0.57;0.57;;;16.80;99.90;;;;;;5035212;28;20029;-55
2023/11/03 04:22:20;;;;;;;1.40;0.80;;;16.90;99.90;;;;;;4999873;28;20029;-54
2023/11/03 04:24:46;;;;;;;1.60;0.70;;;16.90;99.90;;;;;;5035416;28;20029;-54
2023/11/03 04:27:12;;;;;;;2.20;0.85;;;16.90;99.90;;;;;;5034866;28;20500;-53
2023/11/03 04:29:38;;;;;;;1.85;0.65;;;17.00;99.90;;;;;;4999852;28;20049;-54
2023/11/03 04:32:04;;;;;;;1.17;0.88;;;17.00;99.90;;;;;;5034762;28;20029;-54
2023/11/03 04:34:29;;;;;;;2.08;1.10;;;17.00;99.90;;;;;;5034819;28;20029;-54
2023/11/03 04:36:55;;;;;;;2.97;0.88;;;17.00;99.90;;;;;;4999755;28;20095;-54
2023/11/03 04:39:21;;;;;;;1.60;0.85;;;17.00;99.90;;;;;;5034968;28;20064;-55
2023/11/03 04:41:46;;;;;;;2.65;1.67;;;16.90;99.90;;;;;;5034804;28;20520;-54
2023/11/03 04:44:12;;;;;;;2.38;1.20;;;16.90;99.90;;;;;;4999869;28;20030;-54
2023/11/03 04:46:38;;;;;;;1.42;0.80;;;16.90;99.90;;;;;;5033424;28;20144;-54
2023/11/03 04:49:04;;;;;;;1.33;0.93;;;16.80;99.90;;;;;;5034462;28;20099;-55
2023/11/03 04:51:30;;;;;;;4.15;0.73;;;16.90;99.90;;;;;;4999597;28;20041;-54
2023/11/03 04:53:56;;;;;;;1.50;0.70;;;16.80;99.90;;;;;;5034679;28;20432;-54
2023/11/03 04:56:22;;;;;;;2.50;0.70;;;16.80;99.90;;;;;;5034617;28;20029;-54
2023/11/03 04:58:49;;;;;;;1.98;0.90;;;16.90;99.90;;;;;;5034415;28;20033;-54
2023/11/03 05:01:14;;;;;;;1.55;0.82;;;16.90;99.90;;;;;;4999813;28;20072;-54
2023/11/03 05:03:40;;;;;;;1.20;0.50;;;16.90;99.90;;;;;;4999204;28;20480;-53
2023/11/03 05:06:06;;;;;;;0.88;0.60;;;16.90;99.90;;;;;;5015436;28;20477;-54
2023/11/03 05:08:32;;;;;;;3.53;3.22;;;16.80;99.90;;;;;;5000328;28;20103;-54
2023/11/03 05:10:58;;;;;;;0.88;0.63;;;16.80;99.90;;;;;;5034121;28;20025;-54
2023/11/03 05:13:23;;;;;;;2.13;0.90;;;16.80;99.90;;;;;;4982878;28;20527;-53
2023/11/03 05:15:49;;;;;;;3.47;1.02;;;16.80;99.90;;;;;;5034085;28;20030;-55
2023/11/03 05:18:15;;;;;;;2.60;0.80;;;16.90;99.90;;;;;;4998511;28;20037;-53
2023/11/03 05:20:41;;;;;;;1.10;0.80;;;17.00;99.90;;;;;;5033044;28;20037;-55
2023/11/03 05:23:07;;;;;;;2.72;0.95;;;17.00;99.90;;;;;;4997797;28;20029;-55
2023/11/03 05:25:32;;;;;;;1.40;0.68;;;17.00;99.90;;;;;;5014599;28;20443;-55
2023/11/03 05:27:58;;;;;;;4.22;1.25;;;17.00;99.90;;;;;;5033036;28;20040;-54
2023/11/03 05:30:25;;;;;;;1.73;0.93;;;17.00;99.90;;;;;;5032712;28;20036;-55
2023/11/03 05:32:51;;;;;;;4.80;0.77;;;17.10;99.90;;;;;;5014914;28;20046;-55
2023/11/03 05:35:16;;;;;;;2.08;1.00;;;17.10;99.90;;;;;;5033301;28;20056;-54
2023/11/03 05:37:43;;;;;;;2.28;0.90;;;17.10;99.90;;;;;;5033402;28;20037;-55
2023/11/03 05:40:11;;;;;;;4.18;1.63;;;17.20;99.90;;;;;;5014247;28;20033;-55
2023/11/03 05:42:38;;;;;;;3.40;0.90;;;17.20;99.90;;;;;;4998059;28;20041;-54
2023/11/03 05:45:05;;;;;;;1.40;0.90;;;17.30;99.90;;;;;;5013765;28;20034;-55
2023/11/03 05:47:31;;;;;;;2.45;0.75;;;17.40;99.90;;;;;;4997803;28;20067;-55
2023/11/03 05:49:57;;;;;;;2.67;1.30;;;17.60;99.90;;;;;;4996723;28;20044;-54
2023/11/03 05:52:23;;;;;;;1.08;0.60;;;17.80;99.90;;;;;;5032114;28;20025;-54
2023/11/03 05:54:49;;;;;;;2.28;1.05;;;18.00;99.90;;;;;;4996698;28;20113;-54
2023/11/03 05:57:15;;;;;;;4.63;0.75;;;18.10;99.90;;;;;;5032183;28;20055;-52
2023/11/03 05:59:41;;;;;;;1.20;0.60;;;18.20;99.90;;;;;;5032900;28;20040;-53
2023/11/03 06:02:07;;;;;;;2.60;0.95;;;18.20;99.90;;;;;;4996933;28;20033;-54
2023/11/03 06:04:34;;;;;;;1.35;0.70;;;18.20;99.90;;;;;;5032103;28;20033;-53
2023/11/03 06:07:01;;;;;;;2.83;0.93;;;18.10;99.90;;;;;;5013813;28;20048;-52
2023/11/03 06:09:29;;;;;;;2.13;1.08;;;18.00;99.90;;;;;;5032184;28;20173;-53
2023/11/03 06:11:54;;;;;;;1.55;0.80;;;18.00;99.90;;;;;;4998669;28;20087;-51
2023/11/03 06:14:20;;;;;;;1.88;1.02;;;18.00;99.90;;;;;;5032734;28;20445;-53
2023/11/03 06:16:46;;;;;;;5.57;1.00;;;17.90;99.90;;;;;;5032459;28;20062;-52
2023/11/03 06:19:11;;;;;;;5.50;0.95;;;17.90;99.90;;;;;;4997706;28;20441;-53
2023/11/03 06:21:37;;;;;;;2.33;0.88;;;17.80;99.90;;;;;;4997731;28;20437;-54
2023/11/03 06:24:03;;;;;;;0.95;0.60;;;18.00;99.90;;;;;;5031445;28;20095;-54
2023/11/03 06:26:29;;;;;;;1.42;0.93;;;17.90;99.90;;;;;;5032255;28;20104;-52
2023/11/03 06:28:56;;;;;;;1.88;0.90;;;18.00;99.90;;;;;;4997495;28;20124;-51
2023/11/03 06:31:23;;;;;;;2.75;0.68;;;18.10;99.90;;;;;;4996792;28;20060;-51
2023/11/03 06:33:49;;;;;;;2.63;0.77;;;18.10;99.90;;;;;;5031677;28;20052;-51
2023/11/03 06:36:15;;;;;;;4.28;0.73;;;18.10;99.90;;;;;;5032122;28;20369;-52
2023/11/03 06:38:41;;;;;;;2.47;0.90;;;18.20;99.90;;;;;;5032857;28;20060;-51
2023/11/03 06:41:11;;;;;;;2.70;0.98;;;18.20;99.90;;;;;;4997470;28;20087;-52
2023/11/03 06:43:39;;;;;;;2.78;1.05;;;18.20;99.90;;;;;;5032171;28;20041;-51
2023/11/03 06:46:08;;;;;;;2.83;1.17;;;18.10;99.90;;;;;;5032710;28;20037;-51
2023/11/03 06:48:35;;;;;;;0.68;0.65;;;18.20;99.90;;;;;;5031991;28;20187;-52
2023/11/03 06:51:01;;;;;;;0.43;0.43;;;18.30;99.90;;;;;;4997805;28;20037;-52
2023/11/03 06:53:28;;;;;;;0.50;0.50;;;18.40;99.90;;;;;;5032145;28;20029;-51
2023/11/03 06:55:54;;;;;;;2.28;0.80;;;18.60;99.90;;;;;;5032493;28;20496;-51
2023/11/03 06:58:19;;;;;;;0.90;0.90;;;18.80;99.90;;;;;;5013579;28;20124;-51
2023/11/03 07:00:46;;;;;;;2.78;0.77;;;19.20;99.90;;;;;;5032157;28;20022;-51
2023/11/03 07:03:12;;;;;;;2.05;0.57;;;19.60;99.90;;;;;;5032240;28;20472;-51
2023/11/03 07:05:38;;;;;;;1.77;0.95;;;19.70;99.90;;;;;;5032035;28;20033;-51
2023/11/03 07:08:05;;;;;;;1.13;0.70;;;19.90;99.90;;;;;;5032082;28;20038;-51
2023/11/03 07:10:30;;;;;;;1.77;1.10;;;19.90;99.90;;;;;;5031509;28;20113;-52
2023/11/03 07:12:59;;;;;;;2.38;1.33;;;20.20;99.90;;;;;;5013607;28;20039;-51
2023/11/03 07:15:24;;;;;;;2.75;1.17;;;20.00;99.90;;;;;;5013599;28;20041;-51
2023/11/03 07:17:51;;;;;;;3.13;1.05;;;20.10;99.90;;;;;;5031067;28;20495;-51
2023/11/03 07:20:17;;;;;;;5.28;1.60;;;;;;;;;;5031770;28;20091;-51
2023/11/03 07:22:44;;;;;;;1.92;0.60;;;;;;;;;;5031825;28;20060;-52
2023/11/03 07:25:09;;;;;;;1.15;0.80;;;20.70;99.10;;;;;;5013341;28;20033;-51
2023/11/03 07:27:35;;;;;;;1.65;0.80;;;20.60;99.10;;;;;;5012955;28;20099;-52
2023/11/03 07:30:01;;;;;;;3.35;0.90;;;20.40;99.20;;;;;;5031563;28;20026;-51
2023/11/03 07:32:27;;;;;;;1.58;0.73;;;;;;;;;;5031492;28;20116;-51
2023/11/03 07:34:54;;;;;;;0.90;0.70;;;;;;;;;;5031672;28;20481;-50
2023/11/03 07:37:20;;;;;;;0.88;0.60;;;;;;;;;;5031233;28;20116;-51
2023/11/03 07:39:49;;;;;;;2.00;0.60;;;;;;;;;;5031473;28;20538;-51
2023/11/03 07:42:15;;;;;;;1.90;0.98;;;;;;;;;;5031740;28;20084;-53
2023/11/03 07:44:42;;;;;;;1.08;0.77;;;20.60;99.40;;;;;;5031234;28;20033;-51
2023/11/03 07:47:09;;;;;;;1.48;0.88;;;20.50;99.90;;;;;;5031539;28;20377;-51
2023/11/03 07:49:36;;;;;;;3.10;1.63;;;20.30;99.90;;;;;;5031295;28;20065;-52
2023/11/03 07:52:02;;;;;;;5.78;1.15;;;20.20;99.90;;;;;;4996990;28;20045;-52
2023/11/03 07:54:28;;;;;;;3.13;1.23;;;20.20;99.90;;;;;;5031889;28;20476;-52
2023/11/03 07:56:54;;;;;;;4.63;0.95;;;20.10;99.90;;;;;;4996807;28;20041;-51
2023/11/03 07:59:20;;;;;;;1.83;0.90;;;20.10;99.90;;;;;;5031302;28;20029;-51
2023/11/03 08:01:46;;;;;;;3.28;1.00;;;20.10;99.90;;;;;;5030691;28;20034;-52
2023/11/03 08:04:11;;;;;;;3.03;1.05;;;20.10;99.90;;;;;;5031316;28;20026;-52
2023/11/03 08:06:37;;;;;;;2.08;1.30;;;20.20;99.90;;;;;;4996370;28;20091;-51
2023/11/03 08:09:04;;;;;;;2.33;1.02;;;20.20;99.90;;;;;;5031809;28;20025;-53
2023/11/03 08:11:29;;;;;;;4.68;1.50;;;20.20;99.90;;;;;;5031202;28;20037;-52
2023/11/03 08:13:55;;;;;;;2.58;1.23;;;20.30;99.90;;;;;;5031304;28;20346;-53
2023/11/03 08:16:21;;;;;;;3.25;1.02;;;20.30;99.90;;;;;;4996399;28;20033;-52
2023/11/03 08:18:47;;;;;;;4.90;1.40;;;20.50;99.90;;;;;;5030072;28;20025;-51
2023/11/03 08:21:13;;;;;;;4.20;1.25;;;20.70;99.90;;;;;;5032712;28;20388;-52
2023/11/03 08:23:38;;;;;;;7.88;2.25;;;20.80;99.90;;;;;;5034737;28;20025;-53
2023/11/03 08:26:05;;;;;;;2.75;1.13;;;20.60;99.90;;;;;;4999571;28;20037;-51
2023/11/03 08:28:32;;;;;;;1.85;1.08;;;20.70;99.90;;;;;;5034054;28;20136;-53
2023/11/03 08:30:59;;;;;;;0.93;0.77;;;20.70;99.80;;;;;;5033417;28;20460;-52
2023/11/03 08:33:25;;;;;;;3.85;1.30;;;20.80;99.80;;;;;;5034964;28;20025;-51
2023/11/03 08:35:53;;;;;;;1.80;0.70;;;;;;;;;;5034985;28;20038;-50
2023/11/03 08:38:19;;;;;;;6.78;1.40;;;;;;;;;;5034815;28;20036;-51
2023/11/03 08:40:45;;;;;;;4.75;1.60;;;21.40;99.90;;;;;;5034239;28;20132;-51
2023/11/03 08:43:11;;;;;;;1.10;0.85;;;;;;;;;;5016281;28;20412;-53
2023/11/03 08:45:40;;;;;;;4.50;0.98;;;;;;;;;;5034907;28;20126;-52
2023/11/03 08:48:09;;;;;;;5.18;1.92;;;;;;;;;;5016396;28;20204;-51
2023/11/03 08:50:35;;;;;;;1.48;1.10;;;;;;;;;;5034510;28;20060;-53
2023/11/03 08:53:01;;;;;;;7.15;2.10;;;;;;;;;;5034772;28;20040;-52
2023/11/03 08:55:28;;;;;;;9.85;2.00;;;;;;;;;;5034555;28;20026;-53
2023/11/03 08:57:55;;;;;;;5.10;2.05;;;;;;;;;;5015759;28;20647;-53
2023/11/03 09:00:21;;;;;;;6.22;1.92;;;;;;;;;;5034454;28;20061;-52
2023/11/03 09:02:48;;;;;;;8.45;2.55;;;;;;;;;;5034073;28;20026;-53
2023/11/03 09:05:14;;;;;;;1.65;1.10;;;;;;;;;;5034530;28;20080;-52
2023/11/03 09:07:41;;;;;;;4.05;1.77;;;;;;;;;;5034191;28;20033;-52
2023/11/03 09:10:08;;;;;;;5.30;2.78;;;;;;;;;;5034297;28;20033;-51
2023/11/03 09:12:34;;;;;;;6.78;2.17;;;;;;;;;;4999202;28;20045;-52
2023/11/03 09:15:03;;;;;;;4.20;2.65;;;;;;;;;;5033983;28;20032;-53
2023/11/03 09:17:31;;;;;;;3.28;1.85;;;;;;;;;;5034054;28;20034;-52
2023/11/03 09:19:58;;;;;;;3.60;1.60;;;;;;;;;;5033316;28;20021;-51
2023/11/03 09:22:27;;;;;;;7.82;3.63;;;22.50;98.60;;;;;;5031476;28;20121;-52
2023/11/03 09:24:56;;;;;;;5.10;1.58;;;22.50;99.40;;;;;;5033820;28;20033;-53
2023/11/03 09:27:24;;;;;;;7.97;3.75;;;22.40;99.00;;;;;;5033505;28;20421;-52
2023/11/03 09:29:51;;;;;;;4.97;1.60;;;;;;;;;;5015161;28;20044;-52
2023/11/03 09:32:17;;;;;;;6.93;2.50;;;;;;;;;;5032420;28;20092;-52
2023/11/03 09:34:46;;;;;;;3.10;1.58;;;;;;;;;;4997454;28;20046;-53
2023/11/03 09:37:12;;;;;;;7.97;2.20;;;;;;;;;;5032637;28;20014;-52
2023/11/03 09:39:39;;;;;;;4.95;2.60;;;;;;;;;;5032367;28;20037;-51
2023/11/03 09:42:06;;;;;;;1.02;0.93;;;21.80;99.90;;;;;;4997821;28;20041;-53
2023/11/03 09:44:32;;;;;;;12.57;6.85;;;;;;;;;;4981581;28;20033;-51
2023/11/03 09:47:02;;;;;;;10.00;2.97;;;;;;;;;;4997377;28;20064;-54
2023/11/03 09:49:29;;;;;;;3.13;0.90;;;21.70;99.90;;;;;;5029032;28;20061;-51
2023/11/03 09:52:02;;;;;;;2.53;1.38;;;;;;;;;;5013599;28;20044;-50
2023/11/03 09:54:29;;;;;;;5.15;2.08;;;;;;;;;;5029623;28;20030;-50
2023/11/03 09:56:55;;;;;;;5.15;2.33;;;;;;;;;;5032329;28;20159;-53
2023/11/03 09:59:22;;;;;;;11.63;2.42;;;;;;;;;;4983942;28;20040;-50
2023/11/03 10:01:48;;;;;;;5.70;1.70;;;;;;;;;;5032515;28;20024;-53
2023/11/03 10:04:15;;;;;;;2.53;1.38;;;;;;;;;;5031432;28;20025;-53
2023/11/03 10:06:41;;;;;;;5.55;2.70;;;22.20;99.90;;;;;;5029966;28;20076;-51
2023/11/03 10:09:06;;;;;;;7.90;3.22;;;22.10;99.90;;;;;;5032637;28;20431;-55
2023/11/03 10:11:32;;;;;;;13.07;3.90;;;22.00;99.90;;;;;;5014272;28;20040;-52
2023/11/03 10:13:58;;;;;;;7.13;3.55;;;21.90;99.90;;;;;;5032685;28;20109;-53
2023/11/03 10:16:24;;;;;;;10.13;2.88;;;21.90;99.90;;;;;;5032557;28;20485;-59
2023/11/03 10:18:51;;;;;;;8.30;2.38;;;21.90;99.90;;;;;;4977903;28;20033;-51
2023/11/03 10:21:17;;;;;;;5.05;2.20;;;21.90;99.90;;;;;;4996269;28;20393;-53
2023/11/03 10:23:43;;;;;;;8.40;3.08;;;21.80;99.90;;;;;;5031998;28;20477;-52
2023/11/03 10:26:09;;;;;;;8.10;2.53;;;21.80;99.90;;;;;;5031564;28;20026;-53
2023/11/03 10:28:35;;;;;;;10.85;2.72;;;21.70;99.90;;;;;;4996859;28;20378;-52
2023/11/03 10:31:01;;;;;;;5.40;2.15;;;21.70;99.90;;;;;;5031452;28;20091;-52
2023/11/03 10:33:28;;;;;;;5.45;2.40;;;21.60;99.90;;;;;;5031543;28;20548;-53
2023/11/03 10:35:54;;;;;;;7.57;2.28;;;21.50;99.90;;;;;;5032662;28;20485;-53
2023/11/03 10:38:23;;;;;;;5.32;2.45;;;21.60;99.90;;;;;;4997478;28;20124;-52
2023/11/03 10:40:49;;;;;;;13.38;7.80;;;21.80;99.90;;;;;;5032390;28;20108;-53
2023/11/03 10:43:15;;;;;;;7.13;2.45;;;;;;;;;;5032293;28;20029;-52
2023/11/03 10:45:50;;;;;;;1.83;0.90;;;22.70;99.90;;;;;;5031681;28;20132;-52
2023/11/03 10:48:37;;;;;;;3.97;0.80;;;;;;;;;;5031180;28;20523;-52
2023/11/03 10:51:08;;;;;;;3.50;1.00;;;;;;;;;;4970887;28;20075;-52
2023/11/03 10:53:45;;;;;;;4.57;0.80;;;;;;;;;;4971095;28;20043;-52
2023/11/03 10:56:11;;;;;;;9.82;1.42;;;;;;;;;;4971157;28;20093;-53
2023/11/03 10:58:38;;;;;;;0.75;0.30;;;;;;;;;;4966346;28;20061;-56
2023/11/03 11:01:40;;;;;;;7.90;1.90;;;22.50;99.90;;;;;;4964170;28;20096;-54
2023/11/03 11:04:27;;;;;;;4.82;1.05;;;;;;;;;;4968992;28;20481;-53
2023/11/03 11:06:55;;;;;;;3.78;0.93;;;;;;;;;;4970756;28;20050;-53
2023/11/03 11:09:29;;;;;;;2.47;0.93;;;20.60;99.90;;;;;;4970850;28;20031;-55
2023/11/03 11:12:02;;;;;;;2.53;0.65;;;;;;;;;;4970780;28;20043;-55
2023/11/03 11:14:32;;;;;;;4.07;1.00;;;;;;;;;;4970780;28;20034;-53
2023/11/03 11:16:59;;;;;;;0.60;0.52;;;19.50;99.90;;;;;;4963609;28;20047;-54
2023/11/03 11:19:41;;;;;;;1.80;0.70;;;19.20;99.90;;;;;;4951070;29;20039;-55
2023/11/03 11:22:08;;;;;;;1.60;0.60;;;;;;;;;;4983110;28;20389;-54
2023/11/03 11:24:37;;;;;;;1.52;0.40;;;18.60;99.90;;;;;;4978995;28;20047;-52
2023/11/03 11:27:17;;;;;;;3.63;0.73;;;18.30;99.90;;;;;;5030911;28;20125;-53
2023/11/03 11:29:45;;;;;;;1.25;0.70;;;;;;;;;;5030794;28;20036;-53
2023/11/03 11:32:12;;;;;;;1.48;0.70;;;;;;;;;;5030378;28;20109;-55
2023/11/03 11:34:38;;;;;;;2.28;0.95;;;;;;;;;;5012006;28;20088;-53
2023/11/03 11:37:27;;;;;;;2.65;0.43;;;;;;;;;;5030892;28;20025;-53
2023/11/03 11:39:54;;;;;;;4.13;0.63;;;;;;;;;;5030822;28;20532;-52
2023/11/03 11:42:22;;;;;;;2.45;0.57;;;;;;;;;;5030671;28;20025;-53
2023/11/03 11:44:51;;;;;;;2.95;0.40;;;;;;;;;;5030575;28;20091;-53
2023/11/03 11:47:18;;;;;;;0.70;0.38;;;;;;;;;;5030502;28;20361;-56
2023/11/03 11:49:46;;;;;;;1.95;0.75;;;;;;;;;;5011986;28;20038;-52
2023/11/03 11:52:14;;;;;;;1.30;0.63;;;18.70;99.90;;;;;;5030812;28;20029;-56
2023/11/03 11:54:39;;;;;;;2.65;0.65;;;18.70;99.90;;;;;;5030617;28;20516;-55
2023/11/03 11:57:07;;;;;;;1.05;0.60;;;18.90;99.90;;;;;;4998937;28;20125;-55
2023/11/03 11:59:35;;;;;;;2.30;0.70;;;19.50;99.90;;;;;;5034507;28;20477;-53
2023/11/03 12:02:03;;;;;;;2.42;1.10;;;19.60;99.90;;;;;;5033584;28;20037;-52
2023/11/03 12:04:29;;;;;;;2.67;1.13;;;;;;;;;;5034104;28;20078;-54
2023/11/03 12:06:55;;;;;;;1.25;0.68;;;21.30;99.90;;;;;;5034042;28;20026;-54
2023/11/03 12:09:21;;;;;;;2.88;1.00;;;21.80;99.90;;;;;;5033474;28;20022;-53
2023/11/03 12:11:46;;;;;;;1.10;0.70;;;22.30;99.90;;;;;;4998919;28;20033;-56
2023/11/03 12:14:13;;;;;;;2.00;0.90;;;22.30;99.90;;;;;;5033416;28;20036;-51
2023/11/03 12:16:38;;;;;;;2.10;0.70;;;22.70;99.90;;;;;;5033698;28;20376;-55
2023/11/03 12:19:04;;;;;;;3.17;0.60;;;22.80;99.90;;;;;;5033554;28;20029;-53
2023/11/03 12:21:31;;;;;;;0.98;0.52;;;22.40;99.90;;;;;;4998372;28;20719;-55
2023/11/03 12:23:58;;;;;;;2.42;0.73;;;22.20;99.90;;;;;;5033488;28;20075;-54
2023/11/03 12:26:26;;;;;;;1.20;0.70;;;22.20;99.90;;;;;;5033525;28;20025;-52
2023/11/03 12:29:11;;;;;;;0.88;0.40;;;22.20;99.90;;;;;;5030707;28;20045;-53
2023/11/03 12:31:37;;;;;;;1.40;0.30;;;;;;;;;;5033699;28;20036;-52
2023/11/03 12:34:03;;;;;;;0.25;0.22;;;;;;;;;;5033233;28;20021;-53
2023/11/03 12:36:30;;;;;;;0.68;0.40;;;;;;;;;;5033783;28;20026;-51
2023/11/03 12:38:57;;;;;;;2.17;0.85;;;;;;;;;;5033862;28;20079;-51
2023/11/03 12:41:23;;;;;;;0.35;0.35;;;;;;;;;;5033500;28;20388;-53
2023/11/03 12:43:49;;;;;;;1.45;0.30;;;;;;;;;;5031774;28;20032;-52
2023/11/03 12:46:15;;;;;;;0.65;0.28;;;;;;;;;;5033823;28;20029;-51
2023/11/03 12:48:42;;;;;;;0.60;0.50;;;;;;;;;;5033246;28;20471;-52
2023/11/03 12:51:08;;;;;;;1.52;1.10;;;;;;;;;;5033407;28;20017;-51
2023/11/03 12:53:47;;;;;;;3.75;0.85;;;;;;;;;;5016193;28;20038;-51
2023/11/03 12:56:15;;;;;;;1.98;0.43;;;;;;;;;;4990516;28;20129;-51
2023/11/03 12:58:45;;;;;;;1.20;0.60;;;;;;;;;;4991052;28;20045;-51
2023/11/03 13:01:12;;;;;;;1.80;0.80;;;;;;;;;;4992043;28;20042;-50
2023/11/03 13:03:38;;;;;;;1.45;0.60;;;;;;;;;;4993430;28;20034;-51
2023/11/03 13:06:06;;;;;;;1.73;0.60;;;20.80;99.90;;;;;;4990444;28;20428;-51
2023/11/03 13:08:32;;;;;;;1.58;0.77;;;;;;;;;;4973667;28;20078;-52
2023/11/03 13:10:59;;;;;;;1.58;0.85;;;;;;;;;;4990937;28;20058;-49
2023/11/03 13:13:25;;;;;;;3.08;0.80;;;;;;;;;;4991352;28;20112;-51
2023/11/03 13:15:51;;;;;;;2.90;1.00;;;;;;;;;;4990792;28;20125;-51
2023/11/03 13:18:18;;;;;;;6.38;1.30;;;;;;;;;;4958097;28;20449;-51
2023/11/03 13:20:47;;;;;;;0.90;0.70;;;20.50;99.90;;;;;;4991201;28;20042;-51
2023/11/03 13:23:16;;;;;;;0.47;0.43;;;;;;;;;;4991333;28;20041;-52